createdAt,value
2019-04-22T00:00:38.456Z,16.20
2019-04-22T00:03:10.251Z,16.30
2019-04-22T00:06:00.895Z,16.30
2019-04-22T00:08:36.226Z,16.20
2019-04-22T00:11:14.428Z,16.20
2019-04-22T00:13:47.168Z,16.10
2019-04-22T00:16:07.306Z,16.10
2019-04-22T00:19:01.182Z,16.10
2019-04-22T00:21:21.463Z,16.00
2019-04-22T00:23:49.689Z,15.90
2019-04-22T00:26:23.711Z,15.90
2019-04-22T00:31:40.374Z,15.90
2019-04-22T00:34:14.226Z,15.80
2019-04-22T00:36:48.141Z,15.80
2019-04-22T00:39:22.061Z,15.60
2019-04-22T00:41:57.285Z,15.50
2019-04-22T00:44:25.847Z,15.50
2019-04-22T00:47:00.646Z,15.50
2019-04-22T00:52:03.583Z,15.50
2019-04-22T00:54:43.870Z,15.40
2019-04-22T00:57:05.429Z,15.10
2019-04-22T00:59:43.602Z,15.10
2019-04-22T01:02:15.334Z,15.10
2019-04-22T01:04:48.882Z,15.10
2019-04-22T01:07:12.895Z,14.80
2019-04-22T01:09:44.961Z,15.00
2019-04-22T01:12:24.995Z,14.70
2019-04-22T01:14:47.266Z,15.00
2019-04-22T01:17:19.038Z,14.90
2019-04-22T01:19:56.240Z,15.00
2019-04-22T01:22:23.489Z,15.10
2019-04-22T01:24:52.684Z,14.90
2019-04-22T01:27:20.459Z,15.00
2019-04-22T01:29:48.960Z,15.10
2019-04-22T01:32:15.463Z,15.10
2019-04-22T01:34:52.596Z,15.10
2019-04-22T01:37:28.537Z,15.10
2019-04-22T01:40:09.787Z,15.10
2019-04-22T01:42:48.822Z,15.10
2019-04-22T01:45:13.882Z,15.00
2019-04-22T01:47:43.721Z,14.90
2019-04-22T01:50:18.946Z,15.00
2019-04-22T01:52:52.094Z,14.90
2019-04-22T01:55:27.395Z,14.90
2019-04-22T01:57:53.671Z,14.80
2019-04-22T02:00:18.922Z,14.90
2019-04-22T02:02:59.694Z,14.80
2019-04-22T02:05:31.356Z,14.70
2019-04-22T02:08:08.220Z,14.70
2019-04-22T02:10:39.158Z,14.80
2019-04-22T02:13:06.982Z,14.80
2019-04-22T02:15:43.751Z,14.70
2019-04-22T02:18:18.322Z,14.70
2019-04-22T02:20:43.021Z,14.60
2019-04-22T02:23:42.877Z,14.40
2019-04-22T02:28:38.529Z,14.40
2019-04-22T02:36:19.231Z,13.90
2019-04-22T02:38:51.889Z,14.00
2019-04-22T02:43:55.380Z,14.10
2019-04-22T02:56:27.211Z,14.00
2019-04-22T03:01:33.139Z,14.00
2019-04-22T03:04:11.049Z,14.00
2019-04-22T03:09:03.824Z,13.80
2019-04-22T03:11:34.270Z,13.70
2019-04-22T03:16:37.720Z,13.60
2019-04-22T03:19:17.429Z,13.40
2019-04-22T03:21:54.574Z,13.50
2019-04-22T03:24:27.793Z,13.50
2019-04-22T03:29:18.210Z,13.70
2019-04-22T03:37:21.133Z,13.70
2019-04-22T03:49:49.921Z,13.60
2019-04-22T03:54:46.413Z,13.60
2019-04-22T03:59:52.053Z,13.60
2019-04-22T04:02:35.741Z,13.60
2019-04-22T04:04:49.602Z,13.60
2019-04-22T04:07:38.323Z,13.50
2019-04-22T04:10:00.699Z,13.40
2019-04-22T04:15:05.401Z,13.40
2019-04-22T04:17:28.887Z,13.30
2019-04-22T04:22:53.728Z,13.50
2019-04-22T04:37:55.714Z,13.10
2019-04-22T04:42:53.367Z,13.20
2019-04-22T04:45:34.096Z,13.20
2019-04-22T04:48:01.016Z,13.10
2019-04-22T04:50:18.600Z,13.20
2019-04-22T04:53:06.283Z,13.30
2019-04-22T04:55:28.219Z,13.20
2019-04-22T05:05:31.697Z,13.30
2019-04-22T05:08:00.523Z,13.40
2019-04-22T05:15:55.377Z,13.30
2019-04-22T05:18:14.881Z,13.20
2019-04-22T05:21:04.811Z,13.30
2019-04-22T05:23:28.892Z,13.30
2019-04-22T05:25:41.345Z,13.30
2019-04-22T05:28:20.420Z,13.20
2019-04-22T05:30:47.572Z,13.30
2019-04-22T05:33:26.276Z,13.20
2019-04-22T05:35:59.203Z,13.20
2019-04-22T05:40:56.580Z,13.30
2019-04-22T05:43:27.436Z,13.30
2019-04-22T05:45:59.201Z,13.30
2019-04-22T05:48:38.054Z,13.30
2019-04-22T05:51:03.840Z,13.40
2019-04-22T05:53:37.234Z,13.40
2019-04-22T05:56:12.736Z,13.50
2019-04-22T05:58:46.398Z,13.50
2019-04-22T06:03:55.794Z,13.50
2019-04-22T06:08:50.953Z,13.10
2019-04-22T06:11:28.014Z,13.30
2019-04-22T06:13:51.986Z,13.50
2019-04-22T06:16:31.368Z,13.50
2019-04-22T06:19:03.035Z,13.50
2019-04-22T06:21:35.984Z,13.40
2019-04-22T06:24:14.066Z,13.20
2019-04-22T06:26:48.904Z,13.40
2019-04-22T06:29:16.577Z,13.10
2019-04-22T06:32:03.637Z,13.30
2019-04-22T06:34:17.732Z,13.60
2019-04-22T06:39:26.518Z,13.90
2019-04-22T06:41:47.986Z,14.20
2019-04-22T06:46:52.386Z,14.30
2019-04-22T06:52:01.156Z,15.00
2019-04-22T06:54:28.179Z,15.20
2019-04-22T06:57:00.745Z,15.30
2019-04-22T06:59:33.010Z,15.70
2019-04-22T07:04:34.858Z,16.80
2019-04-22T07:12:20.127Z,18.60
2019-04-22T07:14:48.998Z,18.80
2019-04-22T07:17:14.267Z,19.30
2019-04-22T07:20:04.381Z,19.80
2019-04-22T07:22:24.257Z,19.90
2019-04-22T07:24:56.185Z,20.00
2019-04-22T07:27:22.226Z,19.90
2019-04-22T07:30:03.885Z,19.80
2019-04-22T07:32:53.518Z,19.80
2019-04-22T07:35:03.752Z,20.10
2019-04-22T07:40:04.557Z,20.60
2019-04-22T07:42:36.429Z,20.90
2019-04-22T07:45:10.199Z,21.20
2019-04-22T07:50:25.412Z,21.70
2019-04-22T07:53:02.908Z,21.70
2019-04-22T07:55:13.445Z,21.60
2019-04-22T07:58:10.290Z,21.70
2019-04-22T08:00:25.016Z,21.90
2019-04-22T08:03:09.848Z,22.00
2019-04-22T08:05:24.710Z,21.80
2019-04-22T08:07:59.472Z,22.10
2019-04-22T08:12:58.074Z,22.50
2019-04-22T08:15:33.144Z,21.90
2019-04-22T08:18:22.141Z,21.90
2019-04-22T08:20:42.781Z,22.00
2019-04-22T08:23:09.387Z,22.20
2019-04-22T08:25:42.865Z,22.00
2019-04-22T08:28:24.032Z,21.90
2019-04-22T08:30:47.716Z,21.70
2019-04-22T08:33:21.616Z,21.70
2019-04-22T08:38:24.167Z,21.70
2019-04-22T08:41:28.442Z,21.60
2019-04-22T08:46:27.307Z,21.40
2019-04-22T08:48:59.897Z,21.10
2019-04-22T08:56:37.751Z,21.30
2019-04-22T08:59:09.795Z,21.40
2019-04-22T09:01:35.870Z,21.50
2019-04-22T09:04:10.028Z,21.50
2019-04-22T09:09:15.270Z,21.60
2019-04-22T09:11:47.070Z,21.70
2019-04-22T09:14:22.579Z,21.70
2019-04-22T09:16:48.576Z,21.70
2019-04-22T09:19:17.936Z,21.60
2019-04-22T09:21:54.545Z,21.80
2019-04-22T09:24:23.455Z,21.90
2019-04-22T09:26:54.288Z,22.00
2019-04-22T09:29:34.102Z,22.00
2019-04-22T09:32:09.390Z,22.10
2019-04-22T09:34:35.192Z,22.10
2019-04-22T09:37:11.918Z,22.20
2019-04-22T09:42:27.364Z,21.90
2019-04-22T09:44:40.311Z,21.80
2019-04-22T09:47:11.595Z,21.80
2019-04-22T09:49:53.184Z,21.80
2019-04-22T09:52:15.137Z,21.80
2019-04-22T09:54:57.004Z,21.90
2019-04-22T09:57:21.451Z,22.10
2019-04-22T09:59:57.489Z,22.20
2019-04-22T10:02:26.393Z,22.10
2019-04-22T10:05:05.581Z,22.10
2019-04-22T10:07:27.496Z,22.10
2019-04-22T10:10:03.468Z,22.10
2019-04-22T10:15:11.300Z,22.50
2019-04-22T10:17:36.512Z,22.70
2019-04-22T10:20:10.501Z,22.70
2019-04-22T10:22:46.480Z,22.80
2019-04-22T10:25:32.739Z,23.00
2019-04-22T10:27:53.543Z,23.00
2019-04-22T10:30:23.582Z,23.00
2019-04-22T10:32:47.617Z,23.20
2019-04-22T10:35:14.695Z,23.30
2019-04-22T10:37:42.333Z,23.30
2019-04-22T10:40:25.744Z,23.20
2019-04-22T10:42:56.840Z,23.20
2019-04-22T10:45:28.199Z,23.20
2019-04-22T10:48:01.381Z,23.30
2019-04-22T10:50:48.537Z,23.40
2019-04-22T10:53:19.677Z,23.40
2019-04-22T10:55:51.603Z,23.50
2019-04-22T10:58:22.875Z,23.50
2019-04-22T11:00:54.347Z,23.60
2019-04-22T11:03:26.541Z,23.70
2019-04-22T11:05:57.236Z,23.70
2019-04-22T11:08:37.974Z,23.70
2019-04-22T11:11:11.936Z,23.80
2019-04-22T11:13:31.793Z,23.80
2019-04-22T11:16:03.318Z,23.90
2019-04-22T11:18:33.852Z,23.90
2019-04-22T11:21:05.362Z,24.00
2019-04-22T11:23:36.483Z,24.00
2019-04-22T11:26:08.146Z,24.00
2019-04-22T11:28:38.597Z,24.30
2019-04-22T11:31:10.380Z,24.10
2019-04-22T11:33:40.794Z,24.10
2019-04-22T11:36:11.058Z,24.10
2019-04-22T11:38:48.758Z,24.20
2019-04-22T11:41:14.681Z,24.00
2019-04-22T11:43:45.191Z,23.90
2019-04-22T11:46:15.831Z,23.90
2019-04-22T11:48:47.615Z,23.80
2019-04-22T11:51:18.309Z,23.80
2019-04-22T11:53:49.147Z,23.70
2019-04-22T11:56:20.759Z,23.70
2019-04-22T11:58:52.820Z,23.60
2019-04-22T12:01:24.467Z,23.60
2019-04-22T12:03:55.789Z,23.50
2019-04-22T12:06:26.378Z,23.50
2019-04-22T12:08:57.529Z,23.60
2019-04-22T12:11:28.301Z,23.60
2019-04-22T12:14:00.008Z,23.60
2019-04-22T12:16:31.606Z,23.60
2019-04-22T12:19:03.146Z,23.60
2019-04-22T12:21:35.041Z,23.70
2019-04-22T12:24:05.990Z,23.80
2019-04-22T12:26:37.970Z,23.80
2019-04-22T12:29:08.936Z,23.80
2019-04-22T12:31:42.011Z,23.90
2019-04-22T12:34:13.277Z,23.90
2019-04-22T12:36:44.822Z,24.10
2019-04-22T12:39:15.650Z,24.50
2019-04-22T12:41:46.450Z,24.60
2019-04-22T12:44:18.071Z,24.90
2019-04-22T12:46:48.412Z,25.00
2019-04-22T12:49:20.262Z,25.10
2019-04-22T12:51:51.489Z,25.30
2019-04-22T12:54:21.867Z,25.30
2019-04-22T12:56:53.364Z,25.50
2019-04-22T12:59:23.762Z,25.70
2019-04-22T13:01:55.102Z,25.60
2019-04-22T13:04:25.428Z,25.80
2019-04-22T13:06:55.622Z,25.80
2019-04-22T13:09:27.318Z,25.70
2019-04-22T13:11:59.008Z,25.70
2019-04-22T13:14:30.689Z,25.50
2019-04-22T13:17:02.037Z,25.50
2019-04-22T13:19:33.862Z,25.30
2019-04-22T13:22:05.069Z,25.30
2019-04-22T13:24:36.144Z,25.20
2019-04-22T13:27:06.754Z,25.20
2019-04-22T13:29:37.303Z,25.10
2019-04-22T13:32:08.815Z,25.00
2019-04-22T13:34:45.691Z,24.80
2019-04-22T13:37:12.775Z,24.70
2019-04-22T13:39:43.257Z,24.50
2019-04-22T13:42:19.319Z,24.50
2019-04-22T13:44:46.166Z,24.30
2019-04-22T13:47:34.814Z,24.30
2019-04-22T13:52:58.579Z,24.40
2019-04-22T13:55:41.979Z,24.40
2019-04-22T13:57:43.934Z,24.30
2019-04-22T14:00:00.163Z,24.20
2019-04-22T14:03:02.331Z,24.20
2019-04-22T14:05:33.068Z,24.30
2019-04-22T14:08:04.924Z,24.20
2019-04-22T14:10:36.363Z,24.20
2019-04-22T14:13:07.792Z,24.20
2019-04-22T14:15:40.136Z,24.30
2019-04-22T14:18:10.786Z,24.20
2019-04-22T14:20:42.493Z,24.10
2019-04-22T14:23:14.269Z,24.10
2019-04-22T14:25:46.389Z,24.00
2019-04-22T14:28:18.014Z,24.00
2019-04-22T14:30:48.744Z,23.90
2019-04-22T14:33:20.195Z,23.90
2019-04-22T14:35:51.935Z,23.90
2019-04-22T14:38:22.233Z,24.00
2019-04-22T14:40:54.359Z,24.10
2019-04-22T14:43:50.181Z,24.10
2019-04-22T14:46:26.415Z,24.10
2019-04-22T14:48:54.259Z,24.10
2019-04-22T14:51:22.242Z,24.00
2019-04-22T14:53:52.300Z,24.10
2019-04-22T14:56:06.502Z,24.00
2019-04-22T14:58:37.394Z,24.00
2019-04-22T15:01:08.787Z,24.00
2019-04-22T15:03:42.006Z,24.00
2019-04-22T15:06:12.498Z,24.00
2019-04-22T15:08:42.822Z,23.90
2019-04-22T15:11:13.198Z,23.90
2019-04-22T15:13:43.520Z,24.00
2019-04-22T15:16:42.602Z,24.20
2019-04-22T15:19:35.814Z,24.20
2019-04-22T15:22:06.157Z,24.20
2019-04-22T15:24:36.702Z,24.30
2019-04-22T15:27:08.640Z,24.30
2019-04-22T15:29:39.196Z,24.40
2019-04-22T15:32:09.566Z,24.40
2019-04-22T15:34:39.771Z,24.20
2019-04-22T15:37:10.067Z,24.20
2019-04-22T15:39:41.544Z,24.20
2019-04-22T15:42:19.934Z,24.20
2019-04-22T15:44:44.208Z,24.20
2019-04-22T15:47:15.222Z,24.10
2019-04-22T15:49:45.879Z,24.10
2019-04-22T15:52:16.658Z,24.00
2019-04-22T15:54:50.253Z,24.10
2019-04-22T15:57:20.322Z,24.10
2019-04-22T16:00:06.849Z,24.00
2019-04-22T16:02:23.414Z,24.00
2019-04-22T16:04:54.632Z,24.00
2019-04-22T16:07:27.009Z,23.90
2019-04-22T16:09:57.578Z,23.80
2019-04-22T16:12:35.920Z,23.80
2019-04-22T16:15:03.049Z,23.80
2019-04-22T16:17:32.804Z,23.90
2019-04-22T16:20:03.631Z,23.90
2019-04-22T16:22:53.038Z,23.90
2019-04-22T16:25:49.497Z,23.90
2019-04-22T16:28:21.490Z,23.80
2019-04-22T16:30:53.160Z,23.70
2019-04-22T16:33:23.557Z,23.80
2019-04-22T16:35:55.073Z,23.70
2019-04-22T16:38:26.724Z,23.70
2019-04-22T16:40:58.732Z,23.70
2019-04-22T16:43:29.142Z,23.60
2019-04-22T16:45:59.462Z,23.60
2019-04-22T16:48:29.847Z,23.50
2019-04-22T16:51:00.250Z,23.40
2019-04-22T16:53:31.478Z,23.40
2019-04-22T16:56:02.731Z,23.40
2019-04-22T16:58:34.614Z,23.30
2019-04-22T17:01:07.996Z,23.30
2019-04-22T17:03:58.447Z,23.30
2019-04-22T17:06:32.365Z,23.30
2019-04-22T17:09:02.719Z,23.20
2019-04-22T17:11:33.986Z,23.20
2019-04-22T17:14:05.594Z,23.10
2019-04-22T17:16:36.769Z,23.10
2019-04-22T17:19:09.008Z,23.10
2019-04-22T17:21:39.674Z,23.00
2019-04-22T17:24:09.988Z,23.10
2019-04-22T17:26:40.308Z,23.00
2019-04-22T17:29:10.469Z,23.00
2019-04-22T17:31:52.197Z,23.00
2019-04-22T17:34:15.934Z,23.00
2019-04-22T17:36:49.061Z,23.00
2019-04-22T17:39:31.509Z,22.90
2019-04-22T17:42:12.504Z,22.90
2019-04-22T17:44:48.157Z,22.80
2019-04-22T17:47:28.601Z,22.80
2019-04-22T17:50:14.486Z,22.70
2019-04-22T17:52:42.617Z,22.70
2019-04-22T17:55:11.420Z,22.70
2019-04-22T17:57:46.334Z,22.60
2019-04-22T18:00:14.499Z,22.60
2019-04-22T18:02:44.705Z,22.50
2019-04-22T18:05:07.606Z,22.50
2019-04-22T18:07:59.053Z,22.50
2019-04-22T18:10:33.102Z,22.40
2019-04-22T18:13:08.810Z,22.40
2019-04-22T18:15:29.376Z,22.40
2019-04-22T18:18:09.146Z,22.20
2019-04-22T18:20:29.386Z,22.10
2019-04-22T18:22:58.052Z,21.80
2019-04-22T18:25:43.015Z,21.60
2019-04-22T18:28:17.655Z,21.50
2019-04-22T18:30:35.185Z,21.60
2019-04-22T18:33:13.320Z,21.40
2019-04-22T18:35:44.483Z,21.30
2019-04-22T18:38:28.228Z,21.30
2019-04-22T18:40:50.274Z,21.00
2019-04-22T18:43:28.740Z,20.90
2019-04-22T18:45:59.900Z,20.80
2019-04-22T18:48:21.796Z,20.80
2019-04-22T18:51:27.639Z,20.70
2019-04-22T18:54:33.466Z,20.60
2019-04-22T18:57:02.683Z,20.60
2019-04-22T18:59:20.134Z,20.60
2019-04-22T19:01:46.185Z,20.60
2019-04-22T19:04:22.033Z,20.60
2019-04-22T19:07:15.231Z,20.50
2019-04-22T19:09:51.670Z,20.40
2019-04-22T19:12:22.404Z,20.40
2019-04-22T19:14:53.037Z,20.20
2019-04-22T19:17:27.180Z,20.10
2019-04-22T19:19:56.060Z,20.10
2019-04-22T19:22:26.578Z,20.10
2019-04-22T19:24:47.612Z,20.00
2019-04-22T19:27:26.619Z,19.80
2019-04-22T19:29:57.348Z,19.80
2019-04-22T19:32:32.300Z,19.70
2019-04-22T19:34:56.918Z,19.60
2019-04-22T19:37:28.729Z,19.60
2019-04-22T19:42:43.141Z,19.50
2019-04-22T19:45:08.271Z,19.60
2019-04-22T19:47:44.969Z,19.60
2019-04-22T19:50:16.507Z,19.60
2019-04-22T19:52:43.438Z,19.50
2019-04-22T19:55:16.863Z,19.50
2019-04-22T19:57:51.010Z,19.40
2019-04-22T20:00:23.999Z,19.50
2019-04-22T20:03:20.433Z,19.50
2019-04-22T20:06:04.466Z,19.30
2019-04-22T20:08:30.215Z,19.20
2019-04-22T20:11:08.650Z,19.20
2019-04-22T20:13:37.032Z,19.20
2019-04-22T20:15:58.273Z,19.20
2019-04-22T20:21:12.475Z,19.10
2019-04-22T20:23:33.011Z,19.00
2019-04-22T20:26:08.608Z,19.00
2019-04-22T20:28:51.233Z,19.00
2019-04-22T20:31:22.178Z,18.90
2019-04-22T20:34:01.353Z,18.90
2019-04-22T20:36:39.108Z,18.90
2019-04-22T20:38:56.536Z,18.80
2019-04-22T20:41:19.721Z,18.80
2019-04-22T20:43:56.534Z,18.80
2019-04-22T20:46:29.799Z,18.80
2019-04-22T20:49:00.622Z,18.80
2019-04-22T20:51:48.689Z,18.80
2019-04-22T20:54:07.407Z,18.80
2019-04-22T20:56:33.723Z,18.90
2019-04-22T20:59:08.525Z,18.90
2019-04-22T21:01:44.055Z,18.80
2019-04-22T21:03:59.880Z,18.80
2019-04-22T21:06:44.219Z,18.80
2019-04-22T21:09:19.629Z,18.90
2019-04-22T21:11:49.385Z,18.90
2019-04-22T21:14:19.949Z,18.90
2019-04-22T21:16:59.189Z,18.90
2019-04-22T21:19:36.458Z,18.80
2019-04-22T21:22:03.151Z,18.90
2019-04-22T21:24:29.072Z,18.90
2019-04-22T21:27:08.872Z,19.00
2019-04-22T21:29:30.957Z,18.90
2019-04-22T21:32:12.473Z,18.90
2019-04-22T21:34:43.703Z,18.90
2019-04-22T21:37:13.842Z,19.00
2019-04-22T21:39:38.016Z,19.00
2019-04-22T21:42:11.824Z,19.00
2019-04-22T21:44:44.007Z,19.00
2019-04-22T21:47:23.874Z,18.90
2019-04-22T21:50:09.838Z,18.90
2019-04-22T21:52:22.910Z,18.90
2019-04-22T21:55:03.962Z,18.90
2019-04-22T21:57:50.189Z,18.90
2019-04-22T22:00:29.348Z,18.90
2019-04-22T22:02:54.556Z,18.80
2019-04-22T22:05:15.446Z,18.80
2019-04-22T22:07:34.526Z,18.80
2019-04-22T22:10:30.994Z,18.90
2019-04-22T22:13:00.714Z,18.80
2019-04-22T22:15:28.674Z,18.80
2019-04-22T22:17:58.697Z,18.70
2019-04-22T22:20:34.163Z,18.70
2019-04-22T22:23:20.342Z,18.70
2019-04-22T22:25:33.633Z,18.70
2019-04-22T22:28:21.884Z,18.70
2019-04-22T22:31:03.430Z,18.60
2019-04-22T22:33:17.614Z,18.60
2019-04-22T22:35:47.068Z,18.60
2019-04-22T22:38:18.122Z,18.50
2019-04-22T22:40:32.820Z,18.50
2019-04-22T22:43:12.903Z,18.50
2019-04-22T22:45:42.496Z,18.40
2019-04-22T22:48:26.706Z,18.50
2019-04-22T22:50:55.083Z,18.50
2019-04-22T22:53:40.481Z,18.40
2019-04-22T22:56:07.538Z,18.50
2019-04-22T22:58:34.053Z,18.40
2019-04-22T23:01:04.785Z,18.40
2019-04-22T23:03:51.719Z,18.40
2019-04-22T23:06:12.794Z,18.50
2019-04-22T23:08:44.693Z,18.50
2019-04-22T23:11:11.758Z,18.30
2019-04-22T23:13:44.235Z,18.30
2019-04-22T23:16:10.328Z,18.30
2019-04-22T23:18:29.928Z,18.40
2019-04-22T23:21:01.460Z,18.30
2019-04-22T23:23:51.294Z,18.20
2019-04-22T23:26:42.102Z,18.20
2019-04-22T23:29:11.712Z,18.20
2019-04-22T23:31:46.871Z,18.20
2019-04-22T23:34:22.714Z,18.20
2019-04-22T23:37:16.221Z,18.10
2019-04-22T23:42:46.854Z,18.00
2019-04-22T23:45:00.319Z,18.10
2019-04-22T23:47:26.072Z,18.10
2019-04-22T23:50:02.656Z,18.10
2019-04-22T23:52:47.975Z,18.10
2019-04-22T23:55:23.118Z,18.10
2019-04-22T23:57:58.417Z,18.00
